CAC9 weather

Stewart Seaplane Base
Stewart, British Columbia, Canada

Public forecast

Using degrees Celsius for public forecast. Weather courtesy of forecast.io.

Closest aviation weather report (METAR) to Stewart Seaplane Base

Closest report is Stewart Airport, 1.3 nm (2.4 km) NNE. Retrieved 2019/11/13 00:14 UTC (45 minutes ago):

CZST 130014Z 00000KT 10SM -RASN SCT050 OVC060 01/01 A2994 RMK SC4SC4 SLP139

Closest aviation forecast (TAF) to Stewart Seaplane Base

Closest forecast is Ketchikan International Airport, 67.1 nm (124.4 km) WSW. Retrieved 2019-11-13 00:22 UTC (37 minutes ago):

TAF PAKT 122320Z 1300/1324 15008KT 3SM -RA BR SCT004 OVC010 TEMPO 1301/1305 2SM -RA BKN004 FM130500 15006KT 5SM -RA BR BKN009 OVC015 FM131900 15009KT P6SM -RA SCT009 OVC035 AMD LTD TO CLD VIS AND WIND 1306/1315